sensor_id;sensor_type;location;lat;lon;timestamp;P1;durP1;ratioP1;P2;durP2;ratioP2
46767;SDS011;69007;48.978;18.066;2024-02-28T00:00:02;17.88;;;9.30;;
46767;SDS011;69007;48.978;18.066;2024-02-28T00:02:28;18.55;;;10.00;;
46767;SDS011;69007;48.978;18.066;2024-02-28T00:04:55;18.55;;;9.98;;
46767;SDS011;69007;48.978;18.066;2024-02-28T00:07:20;13.90;;;9.80;;
46767;SDS011;69007;48.978;18.066;2024-02-28T00:09:46;13.70;;;9.98;;
46767;SDS011;69007;48.978;18.066;2024-02-28T00:12:11;14.13;;;8.88;;
46767;SDS011;69007;48.978;18.066;2024-02-28T00:14:36;17.98;;;9.13;;
46767;SDS011;69007;48.978;18.066;2024-02-28T00:17:02;13.73;;;9.25;;
46767;SDS011;69007;48.978;18.066;2024-02-28T00:19:28;12.90;;;8.40;;
46767;SDS011;69007;48.978;18.066;2024-02-28T00:21:53;15.18;;;8.27;;
46767;SDS011;69007;48.978;18.066;2024-02-28T00:24:18;19.02;;;9.35;;
46767;SDS011;69007;48.978;18.066;2024-02-28T00:26:44;14.32;;;8.80;;
46767;SDS011;69007;48.978;18.066;2024-02-28T00:29:10;19.20;;;8.60;;
46767;SDS011;69007;48.978;18.066;2024-02-28T00:31:35;13.88;;;8.82;;
46767;SDS011;69007;48.978;18.066;2024-02-28T00:34:01;14.80;;;9.20;;
46767;SDS011;69007;48.978;18.066;2024-02-28T00:36:26;14.65;;;8.50;;
46767;SDS011;69007;48.978;18.066;2024-02-28T00:38:51;13.75;;;8.65;;
46767;SDS011;69007;48.978;18.066;2024-02-28T00:41:17;13.75;;;8.60;;
46767;SDS011;69007;48.978;18.066;2024-02-28T00:43:42;13.70;;;8.38;;
46767;SDS011;69007;48.978;18.066;2024-02-28T00:46:07;11.57;;;8.68;;
46767;SDS011;69007;48.978;18.066;2024-02-28T00:48:39;19.75;;;8.98;;
46767;SDS011;69007;48.978;18.066;2024-02-28T00:51:04;16.08;;;8.98;;
46767;SDS011;69007;48.978;18.066;2024-02-28T00:53:30;13.50;;;8.40;;
46767;SDS011;69007;48.978;18.066;2024-02-28T00:55:55;14.48;;;8.80;;
46767;SDS011;69007;48.978;18.066;2024-02-28T00:58:21;16.38;;;8.10;;
46767;SDS011;69007;48.978;18.066;2024-02-28T01:00:47;19.10;;;9.18;;
46767;SDS011;69007;48.978;18.066;2024-02-28T01:03:13;11.98;;;8.73;;
46767;SDS011;69007;48.978;18.066;2024-02-28T01:05:40;14.70;;;8.25;;
46767;SDS011;69007;48.978;18.066;2024-02-28T01:08:07;14.32;;;8.23;;
46767;SDS011;69007;48.978;18.066;2024-02-28T01:10:33;13.27;;;8.15;;
46767;SDS011;69007;48.978;18.066;2024-02-28T01:12:58;16.52;;;8.25;;
46767;SDS011;69007;48.978;18.066;2024-02-28T01:15:24;16.20;;;8.63;;
46767;SDS011;69007;48.978;18.066;2024-02-28T01:17:49;14.32;;;8.25;;
46767;SDS011;69007;48.978;18.066;2024-02-28T01:20:14;12.40;;;8.55;;
46767;SDS011;69007;48.978;18.066;2024-02-28T01:22:40;17.02;;;8.10;;
46767;SDS011;69007;48.978;18.066;2024-02-28T01:25:05;18.48;;;8.27;;
46767;SDS011;69007;48.978;18.066;2024-02-28T01:27:31;16.00;;;8.20;;
46767;SDS011;69007;48.978;18.066;2024-02-28T01:29:57;17.63;;;7.90;;
46767;SDS011;69007;48.978;18.066;2024-02-28T01:32:23;12.27;;;7.55;;
46767;SDS011;69007;48.978;18.066;2024-02-28T01:34:48;11.80;;;7.60;;
46767;SDS011;69007;48.978;18.066;2024-02-28T01:37:13;15.75;;;7.88;;
46767;SDS011;69007;48.978;18.066;2024-02-28T01:39:39;14.50;;;8.15;;
46767;SDS011;69007;48.978;18.066;2024-02-28T01:42:05;11.30;;;7.72;;
46767;SDS011;69007;48.978;18.066;2024-02-28T01:44:30;16.63;;;8.43;;
46767;SDS011;69007;48.978;18.066;2024-02-28T01:46:56;13.43;;;7.97;;
46767;SDS011;69007;48.978;18.066;2024-02-28T01:49:23;11.30;;;6.70;;
46767;SDS011;69007;48.978;18.066;2024-02-28T01:51:49;20.92;;;8.80;;
46767;SDS011;69007;48.978;18.066;2024-02-28T01:54:16;12.32;;;7.03;;
46767;SDS011;69007;48.978;18.066;2024-02-28T01:56:43;15.77;;;7.43;;
46767;SDS011;69007;48.978;18.066;2024-02-28T01:59:09;13.98;;;7.65;;
46767;SDS011;69007;48.978;18.066;2024-02-28T02:01:36;14.10;;;8.18;;
46767;SDS011;69007;48.978;18.066;2024-02-28T02:04:02;21.02;;;10.95;;
46767;SDS011;69007;48.978;18.066;2024-02-28T02:06:28;19.13;;;10.57;;
46767;SDS011;69007;48.978;18.066;2024-02-28T02:08:54;13.20;;;9.57;;
46767;SDS011;69007;48.978;18.066;2024-02-28T02:11:20;16.67;;;8.75;;
46767;SDS011;69007;48.978;18.066;2024-02-28T02:13:49;17.73;;;7.88;;
46767;SDS011;69007;48.978;18.066;2024-02-28T02:16:16;11.32;;;8.25;;
46767;SDS011;69007;48.978;18.066;2024-02-28T02:18:42;17.02;;;7.95;;
46767;SDS011;69007;48.978;18.066;2024-02-28T02:21:08;11.32;;;7.43;;
46767;SDS011;69007;48.978;18.066;2024-02-28T02:23:36;13.45;;;7.45;;
46767;SDS011;69007;48.978;18.066;2024-02-28T02:26:06;15.10;;;8.25;;
46767;SDS011;69007;48.978;18.066;2024-02-28T02:28:31;9.40;;;7.38;;
46767;SDS011;69007;48.978;18.066;2024-02-28T02:30:56;10.77;;;7.03;;
46767;SDS011;69007;48.978;18.066;2024-02-28T02:33:22;13.57;;;7.60;;
46767;SDS011;69007;48.978;18.066;2024-02-28T02:35:47;14.27;;;7.03;;
46767;SDS011;69007;48.978;18.066;2024-02-28T02:38:12;13.93;;;7.70;;
46767;SDS011;69007;48.978;18.066;2024-02-28T02:40:38;10.38;;;7.40;;
46767;SDS011;69007;48.978;18.066;2024-02-28T02:43:03;14.40;;;7.68;;
46767;SDS011;69007;48.978;18.066;2024-02-28T02:45:28;12.45;;;7.50;;
46767;SDS011;69007;48.978;18.066;2024-02-28T02:47:54;19.08;;;8.07;;
46767;SDS011;69007;48.978;18.066;2024-02-28T02:50:19;13.27;;;7.78;;
46767;SDS011;69007;48.978;18.066;2024-02-28T02:52:44;13.40;;;7.80;;
46767;SDS011;69007;48.978;18.066;2024-02-28T02:55:10;13.55;;;7.35;;
46767;SDS011;69007;48.978;18.066;2024-02-28T02:57:35;11.55;;;7.60;;
46767;SDS011;69007;48.978;18.066;2024-02-28T03:00:00;17.98;;;8.35;;
46767;SDS011;69007;48.978;18.066;2024-02-28T03:02:26;18.17;;;7.65;;
46767;SDS011;69007;48.978;18.066;2024-02-28T03:04:51;15.93;;;7.47;;
46767;SDS011;69007;48.978;18.066;2024-02-28T03:07:16;10.02;;;6.88;;
46767;SDS011;69007;48.978;18.066;2024-02-28T03:09:42;11.02;;;7.45;;
46767;SDS011;69007;48.978;18.066;2024-02-28T03:12:07;12.45;;;7.32;;
46767;SDS011;69007;48.978;18.066;2024-02-28T03:14:34;12.13;;;7.18;;
46767;SDS011;69007;48.978;18.066;2024-02-28T03:17:00;16.30;;;7.35;;
46767;SDS011;69007;48.978;18.066;2024-02-28T03:19:25;14.82;;;6.80;;
46767;SDS011;69007;48.978;18.066;2024-02-28T03:21:51;11.40;;;6.70;;
46767;SDS011;69007;48.978;18.066;2024-02-28T03:24:16;17.60;;;7.13;;
46767;SDS011;69007;48.978;18.066;2024-02-28T03:26:42;16.73;;;8.73;;
46767;SDS011;69007;48.978;18.066;2024-02-28T03:29:08;13.90;;;7.40;;
46767;SDS011;69007;48.978;18.066;2024-02-28T03:31:33;8.43;;;6.47;;
46767;SDS011;69007;48.978;18.066;2024-02-28T03:33:59;9.50;;;6.68;;
46767;SDS011;69007;48.978;18.066;2024-02-28T03:36:24;15.10;;;6.82;;
46767;SDS011;69007;48.978;18.066;2024-02-28T03:38:50;10.63;;;7.13;;
46767;SDS011;69007;48.978;18.066;2024-02-28T03:41:15;12.43;;;7.55;;
46767;SDS011;69007;48.978;18.066;2024-02-28T03:43:40;16.88;;;7.80;;
46767;SDS011;69007;48.978;18.066;2024-02-28T03:46:06;11.15;;;7.18;;
46767;SDS011;69007;48.978;18.066;2024-02-28T03:48:31;16.35;;;8.90;;
46767;SDS011;69007;48.978;18.066;2024-02-28T03:50:56;12.32;;;8.80;;
46767;SDS011;69007;48.978;18.066;2024-02-28T03:53:22;15.25;;;9.07;;
46767;SDS011;69007;48.978;18.066;2024-02-28T03:55:47;17.35;;;8.45;;
46767;SDS011;69007;48.978;18.066;2024-02-28T03:58:12;15.20;;;8.95;;
46767;SDS011;69007;48.978;18.066;2024-02-28T04:00:38;16.00;;;7.80;;
46767;SDS011;69007;48.978;18.066;2024-02-28T04:03:05;12.25;;;8.25;;
46767;SDS011;69007;48.978;18.066;2024-02-28T04:05:31;24.05;;;13.18;;
46767;SDS011;69007;48.978;18.066;2024-02-28T04:07:57;17.38;;;9.85;;
46767;SDS011;69007;48.978;18.066;2024-02-28T04:10:23;13.20;;;7.90;;
46767;SDS011;69007;48.978;18.066;2024-02-28T04:12:48;10.15;;;7.45;;
46767;SDS011;69007;48.978;18.066;2024-02-28T04:15:13;12.70;;;7.72;;
46767;SDS011;69007;48.978;18.066;2024-02-28T04:17:39;19.95;;;7.95;;
46767;SDS011;69007;48.978;18.066;2024-02-28T04:20:08;14.35;;;7.50;;
46767;SDS011;69007;48.978;18.066;2024-02-28T04:22:34;15.07;;;8.32;;
46767;SDS011;69007;48.978;18.066;2024-02-28T04:25:00;13.68;;;6.55;;
46767;SDS011;69007;48.978;18.066;2024-02-28T04:27:29;13.10;;;7.43;;
46767;SDS011;69007;48.978;18.066;2024-02-28T04:29:54;13.00;;;7.72;;
46767;SDS011;69007;48.978;18.066;2024-02-28T04:32:20;14.15;;;7.53;;
46767;SDS011;69007;48.978;18.066;2024-02-28T04:34:45;12.35;;;7.22;;
46767;SDS011;69007;48.978;18.066;2024-02-28T04:37:10;12.63;;;6.75;;
46767;SDS011;69007;48.978;18.066;2024-02-28T04:39:36;13.05;;;7.13;;
46767;SDS011;69007;48.978;18.066;2024-02-28T04:42:01;19.00;;;7.35;;
46767;SDS011;69007;48.978;18.066;2024-02-28T04:44:27;13.32;;;7.75;;
46767;SDS011;69007;48.978;18.066;2024-02-28T04:46:52;10.65;;;6.95;;
46767;SDS011;69007;48.978;18.066;2024-02-28T04:49:18;17.20;;;7.90;;
46767;SDS011;69007;48.978;18.066;2024-02-28T04:51:43;16.50;;;7.18;;
46767;SDS011;69007;48.978;18.066;2024-02-28T04:54:08;13.65;;;7.10;;
46767;SDS011;69007;48.978;18.066;2024-02-28T04:56:38;9.52;;;6.85;;
46767;SDS011;69007;48.978;18.066;2024-02-28T04:59:07;16.52;;;7.50;;
46767;SDS011;69007;48.978;18.066;2024-02-28T05:01:33;15.48;;;6.65;;
46767;SDS011;69007;48.978;18.066;2024-02-28T05:04:00;13.02;;;7.07;;
46767;SDS011;69007;48.978;18.066;2024-02-28T05:06:25;10.93;;;6.97;;
46767;SDS011;69007;48.978;18.066;2024-02-28T05:08:51;12.73;;;8.23;;
46767;SDS011;69007;48.978;18.066;2024-02-28T05:11:16;15.20;;;7.05;;
46767;SDS011;69007;48.978;18.066;2024-02-28T05:13:42;15.88;;;7.20;;
46767;SDS011;69007;48.978;18.066;2024-02-28T05:16:14;12.68;;;6.50;;
46767;SDS011;69007;48.978;18.066;2024-02-28T05:18:40;11.73;;;7.03;;
46767;SDS011;69007;48.978;18.066;2024-02-28T05:21:05;13.40;;;6.53;;
46767;SDS011;69007;48.978;18.066;2024-02-28T05:23:30;18.20;;;8.18;;
46767;SDS011;69007;48.978;18.066;2024-02-28T05:25:56;14.52;;;7.00;;
46767;SDS011;69007;48.978;18.066;2024-02-28T05:28:22;9.43;;;6.47;;
46767;SDS011;69007;48.978;18.066;2024-02-28T05:30:48;16.38;;;7.28;;
46767;SDS011;69007;48.978;18.066;2024-02-28T05:33:13;18.40;;;7.63;;
46767;SDS011;69007;48.978;18.066;2024-02-28T05:35:38;13.27;;;7.07;;
46767;SDS011;69007;48.978;18.066;2024-02-28T05:38:04;16.92;;;6.43;;
46767;SDS011;69007;48.978;18.066;2024-02-28T05:40:29;12.75;;;6.82;;
46767;SDS011;69007;48.978;18.066;2024-02-28T05:42:55;15.35;;;7.28;;
46767;SDS011;69007;48.978;18.066;2024-02-28T05:45:20;9.30;;;6.57;;
46767;SDS011;69007;48.978;18.066;2024-02-28T05:47:45;52.58;;;25.90;;
46767;SDS011;69007;48.978;18.066;2024-02-28T05:50:11;37.40;;;17.63;;
46767;SDS011;69007;48.978;18.066;2024-02-28T05:52:37;14.23;;;8.88;;
46767;SDS011;69007;48.978;18.066;2024-02-28T05:55:03;14.52;;;8.82;;
46767;SDS011;69007;48.978;18.066;2024-02-28T05:57:28;12.77;;;9.52;;
46767;SDS011;69007;48.978;18.066;2024-02-28T05:59:54;17.48;;;9.35;;
46767;SDS011;69007;48.978;18.066;2024-02-28T06:02:19;13.98;;;8.07;;
46767;SDS011;69007;48.978;18.066;2024-02-28T06:04:45;11.98;;;7.65;;
46767;SDS011;69007;48.978;18.066;2024-02-28T06:07:10;14.25;;;6.65;;
46767;SDS011;69007;48.978;18.066;2024-02-28T06:09:35;13.25;;;6.63;;
46767;SDS011;69007;48.978;18.066;2024-02-28T06:12:01;11.93;;;8.63;;
46767;SDS011;69007;48.978;18.066;2024-02-28T06:14:27;16.33;;;8.85;;
46767;SDS011;69007;48.978;18.066;2024-02-28T06:16:52;14.07;;;7.82;;
46767;SDS011;69007;48.978;18.066;2024-02-28T06:19:17;11.40;;;6.43;;
46767;SDS011;69007;48.978;18.066;2024-02-28T06:21:43;15.90;;;7.03;;
46767;SDS011;69007;48.978;18.066;2024-02-28T06:24:08;10.55;;;7.10;;
46767;SDS011;69007;48.978;18.066;2024-02-28T06:26:33;8.65;;;5.90;;
46767;SDS011;69007;48.978;18.066;2024-02-28T06:28:59;8.98;;;5.82;;
46767;SDS011;69007;48.978;18.066;2024-02-28T06:31:27;10.40;;;6.43;;
46767;SDS011;69007;48.978;18.066;2024-02-28T06:33:56;8.50;;;6.28;;
46767;SDS011;69007;48.978;18.066;2024-02-28T06:36:22;12.77;;;6.95;;
46767;SDS011;69007;48.978;18.066;2024-02-28T06:38:47;12.60;;;7.22;;
46767;SDS011;69007;48.978;18.066;2024-02-28T06:41:13;8.90;;;6.75;;
46767;SDS011;69007;48.978;18.066;2024-02-28T06:43:38;12.00;;;7.07;;
46767;SDS011;69007;48.978;18.066;2024-02-28T06:46:04;10.40;;;6.95;;
46767;SDS011;69007;48.978;18.066;2024-02-28T06:48:29;19.88;;;8.23;;
46767;SDS011;69007;48.978;18.066;2024-02-28T06:50:55;9.25;;;7.72;;
46767;SDS011;69007;48.978;18.066;2024-02-28T06:53:21;12.00;;;7.00;;
46767;SDS011;69007;48.978;18.066;2024-02-28T06:55:46;16.55;;;8.18;;
46767;SDS011;69007;48.978;18.066;2024-02-28T06:58:13;14.18;;;8.15;;
46767;SDS011;69007;48.978;18.066;2024-02-28T07:00:39;19.13;;;7.78;;
46767;SDS011;69007;48.978;18.066;2024-02-28T07:03:04;9.80;;;7.47;;
46767;SDS011;69007;48.978;18.066;2024-02-28T07:05:30;29.35;;;11.98;;
46767;SDS011;69007;48.978;18.066;2024-02-28T07:07:55;15.32;;;7.65;;
46767;SDS011;69007;48.978;18.066;2024-02-28T07:10:21;16.75;;;7.93;;
46767;SDS011;69007;48.978;18.066;2024-02-28T07:12:46;13.13;;;8.10;;
46767;SDS011;69007;48.978;18.066;2024-02-28T07:15:12;13.75;;;8.20;;
46767;SDS011;69007;48.978;18.066;2024-02-28T07:17:37;11.32;;;7.88;;
46767;SDS011;69007;48.978;18.066;2024-02-28T07:20:02;15.90;;;9.40;;
46767;SDS011;69007;48.978;18.066;2024-02-28T07:22:28;16.30;;;10.65;;
46767;SDS011;69007;48.978;18.066;2024-02-28T07:24:53;22.30;;;11.18;;
46767;SDS011;69007;48.978;18.066;2024-02-28T07:27:19;23.25;;;11.98;;
46767;SDS011;69007;48.978;18.066;2024-02-28T07:29:48;18.20;;;10.07;;
46767;SDS011;69007;48.978;18.066;2024-02-28T07:32:13;11.82;;;7.88;;
46767;SDS011;69007;48.978;18.066;2024-02-28T07:34:39;14.57;;;8.07;;
46767;SDS011;69007;48.978;18.066;2024-02-28T07:37:04;16.17;;;9.45;;
46767;SDS011;69007;48.978;18.066;2024-02-28T07:39:30;17.77;;;9.95;;
46767;SDS011;69007;48.978;18.066;2024-02-28T07:41:55;15.10;;;8.40;;
46767;SDS011;69007;48.978;18.066;2024-02-28T07:44:20;16.58;;;8.73;;
46767;SDS011;69007;48.978;18.066;2024-02-28T07:46:46;15.75;;;8.70;;
46767;SDS011;69007;48.978;18.066;2024-02-28T07:49:11;15.05;;;7.80;;
46767;SDS011;69007;48.978;18.066;2024-02-28T07:51:38;11.00;;;7.68;;
46767;SDS011;69007;48.978;18.066;2024-02-28T07:54:05;13.90;;;7.40;;
46767;SDS011;69007;48.978;18.066;2024-02-28T07:56:31;10.18;;;6.03;;
46767;SDS011;69007;48.978;18.066;2024-02-28T07:58:56;21.10;;;12.93;;
46767;SDS011;69007;48.978;18.066;2024-02-28T08:01:21;24.75;;;14.27;;
46767;SDS011;69007;48.978;18.066;2024-02-28T08:03:47;23.80;;;12.15;;
46767;SDS011;69007;48.978;18.066;2024-02-28T08:06:12;20.40;;;12.20;;
46767;SDS011;69007;48.978;18.066;2024-02-28T08:08:38;29.67;;;19.80;;
46767;SDS011;69007;48.978;18.066;2024-02-28T08:11:03;28.02;;;15.13;;
46767;SDS011;69007;48.978;18.066;2024-02-28T08:13:29;21.13;;;12.38;;
46767;SDS011;69007;48.978;18.066;2024-02-28T08:15:55;16.02;;;12.02;;
46767;SDS011;69007;48.978;18.066;2024-02-28T08:18:23;27.40;;;13.02;;
46767;SDS011;69007;48.978;18.066;2024-02-28T08:20:49;16.63;;;10.82;;
46767;SDS011;69007;48.978;18.066;2024-02-28T08:23:17;21.50;;;11.73;;
46767;SDS011;69007;48.978;18.066;2024-02-28T08:25:43;21.10;;;14.18;;
46767;SDS011;69007;48.978;18.066;2024-02-28T08:28:08;23.95;;;16.85;;
46767;SDS011;69007;48.978;18.066;2024-02-28T08:30:34;30.25;;;14.30;;
46767;SDS011;69007;48.978;18.066;2024-02-28T08:32:59;19.33;;;11.60;;
46767;SDS011;69007;48.978;18.066;2024-02-28T08:35:24;18.52;;;11.27;;
46767;SDS011;69007;48.978;18.066;2024-02-28T08:37:49;26.45;;;12.00;;
46767;SDS011;69007;48.978;18.066;2024-02-28T08:40:15;18.80;;;11.85;;
46767;SDS011;69007;48.978;18.066;2024-02-28T08:42:40;17.98;;;9.88;;
46767;SDS011;69007;48.978;18.066;2024-02-28T08:45:06;18.67;;;11.25;;
46767;SDS011;69007;48.978;18.066;2024-02-28T08:47:33;29.23;;;17.27;;
46767;SDS011;69007;48.978;18.066;2024-02-28T08:49:58;28.25;;;16.10;;
46767;SDS011;69007;48.978;18.066;2024-02-28T08:52:24;26.17;;;16.90;;
46767;SDS011;69007;48.978;18.066;2024-02-28T08:54:50;27.63;;;16.20;;
46767;SDS011;69007;48.978;18.066;2024-02-28T08:57:15;16.27;;;9.90;;
46767;SDS011;69007;48.978;18.066;2024-02-28T08:59:41;27.02;;;12.32;;
46767;SDS011;69007;48.978;18.066;2024-02-28T09:02:06;20.88;;;11.23;;
46767;SDS011;69007;48.978;18.066;2024-02-28T09:04:32;21.80;;;10.45;;
46767;SDS011;69007;48.978;18.066;2024-02-28T09:06:58;20.63;;;9.27;;
46767;SDS011;69007;48.978;18.066;2024-02-28T09:09:23;17.25;;;9.30;;
46767;SDS011;69007;48.978;18.066;2024-02-28T09:11:48;21.63;;;9.48;;
46767;SDS011;69007;48.978;18.066;2024-02-28T09:14:14;15.75;;;10.32;;
46767;SDS011;69007;48.978;18.066;2024-02-28T09:16:39;18.48;;;10.65;;
46767;SDS011;69007;48.978;18.066;2024-02-28T09:19:04;16.88;;;10.13;;
46767;SDS011;69007;48.978;18.066;2024-02-28T09:21:30;13.73;;;9.43;;
46767;SDS011;69007;48.978;18.066;2024-02-28T09:23:56;23.02;;;12.00;;
46767;SDS011;69007;48.978;18.066;2024-02-28T09:26:22;16.38;;;12.00;;
46767;SDS011;69007;48.978;18.066;2024-02-28T09:28:47;16.27;;;9.32;;
46767;SDS011;69007;48.978;18.066;2024-02-28T09:31:13;17.33;;;9.75;;
46767;SDS011;69007;48.978;18.066;2024-02-28T09:33:40;22.35;;;13.23;;
46767;SDS011;69007;48.978;18.066;2024-02-28T09:36:06;24.25;;;10.88;;
46767;SDS011;69007;48.978;18.066;2024-02-28T09:38:31;15.50;;;9.10;;
46767;SDS011;69007;48.978;18.066;2024-02-28T09:40:57;11.90;;;7.53;;
46767;SDS011;69007;48.978;18.066;2024-02-28T09:43:28;14.38;;;7.85;;
46767;SDS011;69007;48.978;18.066;2024-02-28T09:45:59;16.58;;;7.50;;
46767;SDS011;69007;48.978;18.066;2024-02-28T09:48:28;14.90;;;7.25;;
46767;SDS011;69007;48.978;18.066;2024-02-28T09:50:54;13.98;;;7.30;;
46767;SDS011;69007;48.978;18.066;2024-02-28T09:53:21;10.75;;;7.00;;
46767;SDS011;69007;48.978;18.066;2024-02-28T09:55:47;13.90;;;7.32;;
46767;SDS011;69007;48.978;18.066;2024-02-28T09:58:16;14.80;;;7.95;;
46767;SDS011;69007;48.978;18.066;2024-02-28T10:00:43;12.75;;;8.32;;
46767;SDS011;69007;48.978;18.066;2024-02-28T10:03:13;9.90;;;7.47;;
46767;SDS011;69007;48.978;18.066;2024-02-28T10:05:44;14.98;;;7.85;;
46767;SDS011;69007;48.978;18.066;2024-02-28T10:08:11;18.85;;;8.95;;
46767;SDS011;69007;48.978;18.066;2024-02-28T10:10:38;14.15;;;7.57;;
46767;SDS011;69007;48.978;18.066;2024-02-28T10:13:03;17.33;;;8.65;;
46767;SDS011;69007;48.978;18.066;2024-02-28T10:15:30;20.15;;;8.35;;
46767;SDS011;69007;48.978;18.066;2024-02-28T10:17:55;16.92;;;9.30;;
46767;SDS011;69007;48.978;18.066;2024-02-28T10:20:21;16.70;;;9.40;;
46767;SDS011;69007;48.978;18.066;2024-02-28T10:22:46;19.40;;;9.68;;
46767;SDS011;69007;48.978;18.066;2024-02-28T10:25:11;16.25;;;8.95;;
46767;SDS011;69007;48.978;18.066;2024-02-28T10:27:37;15.77;;;9.02;;
46767;SDS011;69007;48.978;18.066;2024-02-28T10:30:02;16.92;;;9.20;;
46767;SDS011;69007;48.978;18.066;2024-02-28T10:32:31;17.98;;;9.65;;
46767;SDS011;69007;48.978;18.066;2024-02-28T10:34:58;27.02;;;11.18;;
46767;SDS011;69007;48.978;18.066;2024-02-28T10:37:24;15.65;;;10.20;;
46767;SDS011;69007;48.978;18.066;2024-02-28T10:39:53;14.32;;;10.43;;
46767;SDS011;69007;48.978;18.066;2024-02-28T10:42:21;27.90;;;13.35;;
46767;SDS011;69007;48.978;18.066;2024-02-28T10:44:48;15.73;;;10.68;;
46767;SDS011;69007;48.978;18.066;2024-02-28T10:47:17;19.58;;;11.00;;
46767;SDS011;69007;48.978;18.066;2024-02-28T10:49:43;19.10;;;10.05;;
46767;SDS011;69007;48.978;18.066;2024-02-28T10:52:09;18.02;;;10.52;;
46767;SDS011;69007;48.978;18.066;2024-02-28T10:54:38;17.65;;;9.77;;
46767;SDS011;69007;48.978;18.066;2024-02-28T10:57:10;15.15;;;9.55;;
46767;SDS011;69007;48.978;18.066;2024-02-28T10:59:38;17.02;;;9.75;;
46767;SDS011;69007;48.978;18.066;2024-02-28T11:02:07;18.73;;;10.25;;
46767;SDS011;69007;48.978;18.066;2024-02-28T11:04:32;23.00;;;10.25;;
46767;SDS011;69007;48.978;18.066;2024-02-28T11:06:58;16.15;;;9.52;;
46767;SDS011;69007;48.978;18.066;2024-02-28T11:09:25;17.17;;;9.32;;
46767;SDS011;69007;48.978;18.066;2024-02-28T11:11:55;17.00;;;10.30;;
46767;SDS011;69007;48.978;18.066;2024-02-28T11:14:21;16.45;;;9.32;;
46767;SDS011;69007;48.978;18.066;2024-02-28T11:16:47;18.25;;;8.60;;
46767;SDS011;69007;48.978;18.066;2024-02-28T11:19:20;14.30;;;8.25;;
46767;SDS011;69007;48.978;18.066;2024-02-28T11:21:54;15.32;;;8.43;;
46767;SDS011;69007;48.978;18.066;2024-02-28T11:24:23;12.90;;;8.43;;
46767;SDS011;69007;48.978;18.066;2024-02-28T11:26:50;15.60;;;7.78;;
46767;SDS011;69007;48.978;18.066;2024-02-28T11:29:16;14.32;;;7.35;;
46767;SDS011;69007;48.978;18.066;2024-02-28T11:31:47;18.13;;;8.75;;
46767;SDS011;69007;48.978;18.066;2024-02-28T11:34:12;22.42;;;9.30;;
46767;SDS011;69007;48.978;18.066;2024-02-28T11:36:37;16.17;;;7.70;;
46767;SDS011;69007;48.978;18.066;2024-02-28T11:39:05;11.60;;;7.88;;
46767;SDS011;69007;48.978;18.066;2024-02-28T11:41:31;13.65;;;7.60;;
46767;SDS011;69007;48.978;18.066;2024-02-28T11:43:57;24.63;;;7.82;;
46767;SDS011;69007;48.978;18.066;2024-02-28T11:46:23;18.60;;;8.85;;
46767;SDS011;69007;48.978;18.066;2024-02-28T11:48:48;17.83;;;8.60;;
46767;SDS011;69007;48.978;18.066;2024-02-28T11:51:14;14.23;;;7.85;;
46767;SDS011;69007;48.978;18.066;2024-02-28T11:53:40;12.60;;;7.82;;
46767;SDS011;69007;48.978;18.066;2024-02-28T11:56:05;13.13;;;8.00;;
46767;SDS011;69007;48.978;18.066;2024-02-28T11:58:31;16.30;;;8.63;;
46767;SDS011;69007;48.978;18.066;2024-02-28T12:00:57;18.08;;;8.70;;
46767;SDS011;69007;48.978;18.066;2024-02-28T12:03:23;20.92;;;9.50;;
46767;SDS011;69007;48.978;18.066;2024-02-28T12:05:48;17.95;;;8.25;;
46767;SDS011;69007;48.978;18.066;2024-02-28T12:08:16;21.65;;;9.07;;
46767;SDS011;69007;48.978;18.066;2024-02-28T12:10:43;20.77;;;10.20;;
46767;SDS011;69007;48.978;18.066;2024-02-28T12:13:08;13.05;;;8.57;;
46767;SDS011;69007;48.978;18.066;2024-02-28T12:15:34;16.20;;;9.02;;
46767;SDS011;69007;48.978;18.066;2024-02-28T12:17:59;18.25;;;8.57;;
46767;SDS011;69007;48.978;18.066;2024-02-28T12:20:25;19.17;;;9.60;;
46767;SDS011;69007;48.978;18.066;2024-02-28T12:22:50;10.93;;;8.30;;
46767;SDS011;69007;48.978;18.066;2024-02-28T12:25:16;15.23;;;9.32;;
46767;SDS011;69007;48.978;18.066;2024-02-28T12:27:41;15.05;;;8.95;;
46767;SDS011;69007;48.978;18.066;2024-02-28T12:30:07;21.73;;;9.20;;
46767;SDS011;69007;48.978;18.066;2024-02-28T12:32:32;15.82;;;9.80;;
46767;SDS011;69007;48.978;18.066;2024-02-28T12:34:58;14.70;;;9.05;;
46767;SDS011;69007;48.978;18.066;2024-02-28T12:37:23;20.50;;;10.40;;
46767;SDS011;69007;48.978;18.066;2024-02-28T12:39:49;14.00;;;9.77;;
46767;SDS011;69007;48.978;18.066;2024-02-28T12:42:16;16.38;;;9.82;;
46767;SDS011;69007;48.978;18.066;2024-02-28T12:44:42;15.32;;;10.20;;
46767;SDS011;69007;48.978;18.066;2024-02-28T12:47:10;15.55;;;10.38;;
46767;SDS011;69007;48.978;18.066;2024-02-28T12:49:37;19.33;;;10.95;;
46767;SDS011;69007;48.978;18.066;2024-02-28T12:52:02;13.68;;;9.93;;
46767;SDS011;69007;48.978;18.066;2024-02-28T12:54:28;15.70;;;10.20;;
46767;SDS011;69007;48.978;18.066;2024-02-28T12:56:53;21.27;;;10.45;;
46767;SDS011;69007;48.978;18.066;2024-02-28T12:59:19;19.00;;;9.50;;
46767;SDS011;69007;48.978;18.066;2024-02-28T13:01:44;22.20;;;9.98;;
46767;SDS011;69007;48.978;18.066;2024-02-28T13:04:12;16.63;;;9.95;;
46767;SDS011;69007;48.978;18.066;2024-02-28T13:06:37;19.70;;;10.15;;
46767;SDS011;69007;48.978;18.066;2024-02-28T13:09:04;20.75;;;9.90;;
46767;SDS011;69007;48.978;18.066;2024-02-28T13:11:31;15.60;;;10.20;;
46767;SDS011;69007;48.978;18.066;2024-02-28T13:13:56;21.65;;;10.80;;
46767;SDS011;69007;48.978;18.066;2024-02-28T13:16:22;20.40;;;9.88;;
46767;SDS011;69007;48.978;18.066;2024-02-28T13:18:47;19.80;;;10.45;;
46767;SDS011;69007;48.978;18.066;2024-02-28T13:21:12;20.27;;;11.15;;
46767;SDS011;69007;48.978;18.066;2024-02-28T13:23:38;16.85;;;10.02;;
46767;SDS011;69007;48.978;18.066;2024-02-28T13:26:04;15.55;;;10.15;;
46767;SDS011;69007;48.978;18.066;2024-02-28T13:28:30;17.92;;;10.50;;
46767;SDS011;69007;48.978;18.066;2024-02-28T13:30:59;17.30;;;9.75;;
46767;SDS011;69007;48.978;18.066;2024-02-28T13:33:25;16.40;;;9.85;;
46767;SDS011;69007;48.978;18.066;2024-02-28T13:35:51;17.65;;;10.02;;
46767;SDS011;69007;48.978;18.066;2024-02-28T13:38:18;14.85;;;9.70;;
46767;SDS011;69007;48.978;18.066;2024-02-28T13:40:45;15.13;;;10.77;;
46767;SDS011;69007;48.978;18.066;2024-02-28T13:43:11;18.45;;;10.63;;
46767;SDS011;69007;48.978;18.066;2024-02-28T13:45:46;17.52;;;9.90;;
46767;SDS011;69007;48.978;18.066;2024-02-28T13:48:16;24.63;;;9.93;;
46767;SDS011;69007;48.978;18.066;2024-02-28T13:50:43;20.08;;;9.63;;
46767;SDS011;69007;48.978;18.066;2024-02-28T13:53:12;17.60;;;9.90;;
46767;SDS011;69007;48.978;18.066;2024-02-28T13:55:40;18.40;;;9.57;;
46767;SDS011;69007;48.978;18.066;2024-02-28T13:58:08;17.17;;;10.20;;
46767;SDS011;69007;48.978;18.066;2024-02-28T14:00:34;17.73;;;10.30;;
46767;SDS011;69007;48.978;18.066;2024-02-28T14:03:00;14.35;;;10.00;;
46767;SDS011;69007;48.978;18.066;2024-02-28T14:05:26;16.50;;;10.30;;
46767;SDS011;69007;48.978;18.066;2024-02-28T14:07:52;13.63;;;9.77;;
46767;SDS011;69007;48.978;18.066;2024-02-28T14:10:17;20.02;;;10.30;;